Cornwall On Hudson, New York
Current Conditions -  °F | °C
As of 2:45 PM on Friday 31 Oct 2014 (Local Time) from KSWF Reporting Station
Scattered Clouds Scattered Clouds  
Wind Chill: 52°   Ceiling: Unl
Heat Index: 52°   Visibility: 20mi
Dew Point: 39°   Wind: 6mph
Humidity: 62%   Direction: NA
Pressure: 29.95"   Gusts: NA
Location:  41.44°N, 74.02°W
Report Text: KSWF 311845Z VRB05KT 20SM SCT050 11/04 A2995
Loading
Personal Weather Stations






























Interactive Weather Map
Tropical Storm Tracking
New forecast layout! Learn more

10-Day Weather Forecast

Advertisements
Track Severe Weather on mobile